Time;durP1;ratioP1;P1;durP2;ratioP2;P2;SDS_P1;SDS_P2;PMS_P1;PMS_P2;Temp;Humidity;BMP_temperature;BMP_pressure;BME280_temperature;BME280_humidity;BME280_pressure;Samples;Min_cycle;Max_cycle;Signal;HPM_P1;HPM_P2
2023/08/30 00:02:11;;;;;;;4.63;4.23;;;;;;;24.45;91.98;98253.53;5111653;28;20194;-74
2023/08/30 00:04:38;;;;;;;3.87;3.57;;;;;;;24.43;91.82;98258.09;5112542;28;20191;-74
2023/08/30 00:07:06;;;;;;;3.03;2.83;;;;;;;24.40;91.74;98254.00;5112118;27;20264;-74
2023/08/30 00:09:33;;;;;;;4.00;3.70;;;;;;;24.40;91.40;98261.88;5111785;28;20215;-74
2023/08/30 00:12:00;;;;;;;3.87;3.67;;;;;;;24.34;92.28;98264.31;5111864;27;20681;-75
2023/08/30 00:14:26;;;;;;;4.70;4.37;;;;;;;24.30;91.48;98262.97;5111460;28;20207;-74
2023/08/30 00:16:53;;;;;;;3.37;3.07;;;;;;;24.24;92.12;98258.38;5111423;28;20183;-74
2023/08/30 00:19:20;;;;;;;3.97;3.77;;;;;;;24.23;92.59;98246.28;5111562;28;20195;-75
2023/08/30 00:21:47;;;;;;;4.63;3.53;;;;;;;24.21;92.17;98254.28;5111911;28;20222;-74
2023/08/30 00:24:15;;;;;;;3.63;3.33;;;;;;;24.21;92.13;98251.69;5110948;28;20190;-75
2023/08/30 00:26:42;;;;;;;3.10;2.60;;;;;;;24.21;91.85;98248.25;5111689;28;20194;-74
2023/08/30 00:29:08;;;;;;;5.10;3.33;;;;;;;24.07;92.57;98254.06;5109696;28;20295;-74
2023/08/30 00:31:35;;;;;;;3.40;3.20;;;;;;;23.85;93.93;98248.41;5110728;28;20252;-74
2023/08/30 00:34:02;;;;;;;3.60;3.23;;;;;;;23.75;94.11;98247.72;5111577;28;20187;-74
2023/08/30 00:36:29;;;;;;;5.20;2.87;;;;;;;23.53;95.74;98245.66;5111077;27;20750;-74
2023/08/30 00:38:55;;;;;;;4.17;3.87;;;;;;;23.30;96.86;98252.34;5111255;28;20186;-74
2023/08/30 00:41:23;;;;;;;2.70;2.60;;;;;;;23.14;97.39;98254.84;5111021;28;20205;-74
2023/08/30 00:43:50;;;;;;;2.73;2.63;;;;;;;23.00;98.79;98262.25;5111649;28;20202;-74
2023/08/30 00:46:17;;;;;;;4.00;3.50;;;;;;;22.91;99.28;98257.94;5111138;28;20194;-74
2023/08/30 00:48:44;;;;;;;3.87;3.57;;;;;;;22.85;99.65;98269.00;5111285;28;20210;-74
2023/08/30 00:51:11;;;;;;;9.27;3.07;;;;;;;22.79;99.77;98258.34;5110771;28;20741;-74
2023/08/30 00:53:38;;;;;;;3.83;3.63;;;;;;;22.74;99.68;98258.81;5111176;28;20244;-74
2023/08/30 00:56:05;;;;;;;3.77;3.57;;;;;;;22.80;99.36;98260.81;5111066;28;20936;-75
2023/08/30 00:58:34;;;;;;;3.83;3.43;;;;;;;22.81;99.59;98262.44;5110572;28;20194;-73
2023/08/30 01:01:00;;;;;;;4.07;3.77;;;;;;;22.87;99.27;98267.09;5111143;28;20183;-75
2023/08/30 01:03:27;;;;;;;3.43;2.90;;;;;;;22.92;98.36;98270.06;5110837;27;20191;-74
2023/08/30 01:05:55;;;;;;;3.77;3.57;;;;;;;22.95;97.28;98269.75;5109783;28;20293;-74
2023/08/30 01:08:21;;;;;;;3.00;2.80;;;;;;;22.99;97.26;98276.31;5110463;28;20288;-74
2023/08/30 01:11:00;;;;;;;3.60;3.30;;;;;;;23.06;97.02;98276.53;5110347;28;20256;-74
2023/08/30 01:13:30;;;;;;;3.03;2.83;;;;;;;23.14;96.28;98281.00;5110613;28;20190;-74
2023/08/30 01:15:59;;;;;;;2.77;2.67;;;;;;;23.16;95.92;98281.69;5110604;28;20218;-74
2023/08/30 01:18:29;;;;;;;3.97;3.77;;;;;;;23.19;95.43;98282.19;5110670;28;20203;-74
2023/08/30 01:20:57;;;;;;;5.93;3.63;;;;;;;23.22;94.53;98284.50;5110906;28;20551;-74
2023/08/30 01:23:38;;;;;;;3.23;3.03;;;;;;;23.25;93.97;98286.00;5110473;28;20194;-74
2023/08/30 01:26:10;;;;;;;3.57;3.37;;;;;;;23.24;93.60;98287.78;5110874;28;20195;-74
2023/08/30 01:28:39;;;;;;;3.57;3.43;;;;;;;23.25;93.82;98296.44;5106088;28;20728;-74
2023/08/30 01:31:08;;;;;;;3.17;3.00;;;;;;;23.19;93.65;98297.06;5118319;27;20190;-74
2023/08/30 01:33:36;;;;;;;9.23;3.20;;;;;;;23.11;94.04;98294.38;5110414;28;20187;-74
2023/08/30 01:36:05;;;;;;;6.13;3.47;;;;;;;23.09;93.77;98293.72;5110367;28;20199;-74
2023/08/30 01:38:33;;;;;;;3.07;2.87;;;;;;;23.06;94.38;98297.47;5110204;28;20222;-74
2023/08/30 01:41:00;;;;;;;3.20;3.00;;;;;;;23.05;94.87;98294.97;5110433;28;20190;-74
2023/08/30 01:43:29;;;;;;;4.17;3.10;;;;;;;22.97;94.36;98288.72;5110320;28;20198;-74
2023/08/30 01:46:00;;;;;;;3.03;2.90;;;;;;;22.96;94.44;98301.94;5110222;28;20674;-74
2023/08/30 01:48:29;;;;;;;3.10;3.00;;;;;;;22.91;94.38;98305.00;5109579;28;20230;-74
2023/08/30 01:50:58;;;;;;;3.40;3.03;;;;;;;22.93;95.19;98307.47;5110499;28;20214;-74
2023/08/30 01:53:26;;;;;;;2.47;2.37;;;;;;;22.88;94.99;98292.22;5112220;28;20205;-74
2023/08/30 01:55:53;;;;;;;2.87;2.77;;;;;;;22.89;94.88;98311.34;5110170;28;20279;-74
2023/08/30 01:58:20;;;;;;;3.40;3.20;;;;;;;22.88;95.47;98310.53;5110262;28;20680;-74
2023/08/30 02:00:47;;;;;;;2.97;2.77;;;;;;;22.87;95.44;98308.06;5109705;28;20199;-74
2023/08/30 02:03:15;;;;;;;2.60;2.50;;;;;;;22.84;95.39;98301.34;5109411;28;20712;-74
2023/08/30 02:05:57;;;;;;;3.93;3.40;;;;;;;22.84;95.55;98296.09;5109941;28;20263;-74
2023/08/30 02:08:31;;;;;;;3.47;3.17;;;;;;;22.74;95.31;98282.31;5109937;28;20758;-74
2023/08/30 02:11:05;;;;;;;3.63;3.33;;;;;;;22.80;95.37;98294.78;5109388;28;20216;-74
2023/08/30 02:13:34;;;;;;;2.23;2.13;;;;;;;22.79;95.89;98290.53;5109643;28;20565;-74
2023/08/30 02:16:02;;;;;;;3.93;2.90;;;;;;;22.80;95.75;98281.72;5110337;28;20191;-75
2023/08/30 02:18:30;;;;;;;4.00;3.40;;;;;;;22.80;95.68;98294.78;5116723;27;20682;-74
2023/08/30 02:20:57;;;;;;;3.10;2.90;;;;;;;22.80;95.81;98291.34;5110104;28;20248;-74
2023/08/30 02:23:24;;;;;;;3.13;2.97;;;;;;;22.78;96.34;98294.09;5109607;28;20202;-74
2023/08/30 02:25:51;;;;;;;3.07;2.97;;;;;;;22.75;96.22;98289.16;5109864;28;20281;-74
2023/08/30 02:28:18;;;;;;;4.47;4.17;;;;;;;22.74;95.79;98287.56;5109107;28;20260;-75
2023/08/30 02:30:45;;;;;;;3.47;3.27;;;;;;;22.74;95.92;98284.94;5110197;28;20179;-74
2023/08/30 02:33:11;;;;;;;8.87;3.20;;;;;;;22.67;96.26;98275.22;5109629;28;20179;-74
2023/08/30 02:35:39;;;;;;;3.77;3.57;;;;;;;22.66;96.21;98279.63;5110007;28;20191;-74
2023/08/30 02:38:07;;;;;;;3.13;2.93;;;;;;;22.67;96.05;98286.50;5109493;28;20259;-74
2023/08/30 02:40:34;;;;;;;4.07;3.77;;;;;;;22.63;96.54;98285.13;5112041;28;20199;-74
2023/08/30 02:43:00;;;;;;;3.20;3.00;;;;;;;22.60;96.59;98293.25;5113364;27;20743;-74
2023/08/30 02:45:27;;;;;;;3.60;3.30;;;;;;;22.59;96.84;98280.31;5113269;28;20240;-74
2023/08/30 02:47:56;;;;;;;2.97;2.77;;;;;;;22.57;96.79;98282.28;5113652;27;20191;-75
2023/08/30 02:50:23;;;;;;;3.93;3.27;;;;;;;22.54;97.23;98287.78;5118836;27;20218;-74
2023/08/30 02:52:51;;;;;;;4.10;3.80;;;;;;;22.55;97.16;98286.84;5113376;28;20239;-74
2023/08/30 02:55:18;;;;;;;3.97;3.77;;;;;;;22.54;96.92;98286.00;5113369;28;20680;-74
2023/08/30 02:57:46;;;;;;;2.93;2.67;;;;;;;22.55;97.58;98294.69;5113450;27;20327;-74
2023/08/30 03:00:14;;;;;;;3.40;3.10;;;;;;;22.52;97.16;98293.16;5113380;28;20676;-74
2023/08/30 03:02:40;;;;;;;2.80;2.60;;;;;;;22.17;99.83;98301.75;5113209;28;20341;-74
2023/08/30 03:05:08;;;;;;;6.60;3.43;;;;;;;21.90;100.00;98304.38;5112758;28;20195;-74
2023/08/30 03:07:34;;;;;;;2.83;2.57;;;;;;;21.72;100.00;98308.66;5109397;28;20221;-74
2023/08/30 03:10:03;;;;;;;3.63;3.33;;;;;;;21.66;100.00;98304.84;5115776;27;20225;-75
2023/08/30 03:12:30;;;;;;;3.33;3.13;;;;;;;21.66;100.00;98299.63;5112500;28;20195;-74
2023/08/30 03:14:57;;;;;;;3.57;3.27;;;;;;;21.62;100.00;98303.47;5112394;28;20754;-74
2023/08/30 03:17:24;;;;;;;12.80;3.63;;;;;;;21.63;100.00;98307.72;5112174;28;20199;-74
2023/08/30 03:19:53;;;;;;;3.57;2.60;;;;;;;21.52;100.00;98312.31;5112749;28;20669;-74
2023/08/30 03:22:19;;;;;;;3.80;3.37;;;;;;;21.46;100.00;98319.72;5112594;28;20263;-74
2023/08/30 03:24:46;;;;;;;2.70;2.50;;;;;;;21.42;100.00;98314.94;5112645;28;20195;-73
2023/08/30 03:27:14;;;;;;;4.33;4.13;;;;;;;21.34;100.00;98314.78;5112749;28;20197;-74
2023/08/30 03:29:41;;;;;;;4.40;3.50;;;;;;;21.23;100.00;98317.53;5112269;28;20677;-74
2023/08/30 03:32:08;;;;;;;3.07;2.97;;;;;;;21.14;100.00;98313.16;5111722;28;20186;-77
2023/08/30 03:34:34;;;;;;;3.27;2.63;;;;;;;21.18;100.00;98330.19;5107901;28;20217;-75
2023/08/30 03:37:01;;;;;;;3.43;3.23;;;;;;;21.19;100.00;98326.63;5112581;28;20192;-75
2023/08/30 03:39:28;;;;;;;3.60;3.40;;;;;;;21.24;100.00;98330.44;5112603;28;20198;-75
2023/08/30 03:41:55;;;;;;;2.73;2.63;;;;;;;21.29;100.00;98333.44;5114587;27;20602;-75
2023/08/30 03:44:23;;;;;;;3.57;3.37;;;;;;;21.34;100.00;98330.44;5112138;28;20615;-75
2023/08/30 03:46:50;;;;;;;3.10;2.90;;;;;;;21.38;100.00;98331.81;5112467;28;20730;-75
2023/08/30 03:49:17;;;;;;;3.70;3.50;;;;;;;21.44;100.00;98321.66;5112375;28;20218;-75
2023/08/30 03:51:44;;;;;;;3.30;3.10;;;;;;;21.48;100.00;98327.41;5111926;28;20206;-75
2023/08/30 03:54:16;;;;;;;3.67;3.37;;;;;;;21.57;100.00;98320.50;5112028;28;20224;-75
2023/08/30 03:56:42;;;;;;;4.47;4.17;;;;;;;21.63;100.00;98336.41;5112833;27;20190;-75
2023/08/30 03:59:10;;;;;;;6.27;3.77;;;;;;;21.67;100.00;98340.41;5112129;28;20199;-76
2023/08/30 04:01:38;;;;;;;3.23;3.07;;;;;;;21.71;100.00;98354.78;5112244;28;20195;-75
2023/08/30 04:04:05;;;;;;;5.87;3.40;;;;;;;21.77;100.00;98350.81;5111814;28;20251;-75
2023/08/30 04:06:32;;;;;;;3.60;3.30;;;;;;;21.77;100.00;98351.63;5111546;28;20282;-75
2023/08/30 04:08:59;;;;;;;3.80;3.57;;;;;;;21.82;100.00;98359.84;5111479;28;20211;-75
2023/08/30 04:11:26;;;;;;;3.77;3.43;;;;;;;21.87;100.00;98360.22;5111601;28;20206;-75
2023/08/30 04:13:53;;;;;;;3.13;2.97;;;;;;;21.90;100.00;98360.00;5112088;28;20760;-75
2023/08/30 04:16:20;;;;;;;4.30;4.10;;;;;;;21.95;100.00;98363.00;5111906;27;20194;-75
2023/08/30 04:18:48;;;;;;;3.07;2.90;;;;;;;21.98;100.00;98352.25;5111653;27;20198;-75
2023/08/30 04:21:14;;;;;;;4.97;3.60;;;;;;;22.01;100.00;98345.94;5111290;28;20742;-75
2023/08/30 04:23:41;;;;;;;3.50;3.30;;;;;;;22.06;100.00;98348.13;5111793;28;20199;-75
2023/08/30 04:26:08;;;;;;;5.50;3.63;;;;;;;22.12;100.00;98342.31;5111862;28;20190;-76
2023/08/30 04:28:34;;;;;;;6.83;3.30;;;;;;;22.16;100.00;98338.47;5111293;28;20710;-75
2023/08/30 04:31:01;;;;;;;3.93;3.73;;;;;;;22.17;100.00;98338.31;5111510;28;20221;-75
2023/08/30 04:33:28;;;;;;;3.47;3.27;;;;;;;22.16;100.00;98343.69;5111117;28;20195;-75
2023/08/30 04:35:56;;;;;;;3.10;2.90;;;;;;;22.25;100.00;98348.88;5111494;28;20741;-75
2023/08/30 04:38:23;;;;;;;3.57;3.37;;;;;;;22.28;100.00;98352.97;5111371;28;20260;-75
2023/08/30 04:40:50;;;;;;;3.30;3.07;;;;;;;22.24;100.00;98356.81;5111294;28;20665;-75
2023/08/30 04:43:16;;;;;;;4.17;3.97;;;;;;;22.29;100.00;98359.84;5111032;28;20248;-76
2023/08/30 04:45:43;;;;;;;3.70;3.37;;;;;;;22.35;100.00;98354.88;5107495;28;20190;-76
2023/08/30 04:48:10;;;;;;;3.20;2.80;;;;;;;22.34;100.00;98357.59;5110299;28;20202;-75
2023/08/30 04:50:37;;;;;;;4.40;4.10;;;;;;;22.34;100.00;98345.38;5110357;28;20708;-75
2023/08/30 04:53:05;;;;;;;3.07;2.87;;;;;;;22.44;100.00;98364.44;5110874;28;20577;-75
2023/08/30 04:55:32;;;;;;;3.20;2.83;;;;;;;22.53;100.00;98362.72;5110483;28;20247;-75
2023/08/30 04:57:59;;;;;;;4.73;2.57;;;;;;;22.65;100.00;98368.59;5110852;28;20195;-75
2023/08/30 05:00:26;;;;;;;3.73;3.43;;;;;;;22.73;100.00;98368.69;5112023;27;20259;-75
2023/08/30 05:02:53;;;;;;;3.37;3.17;;;;;;;22.73;99.15;98361.66;5110955;28;20202;-76
2023/08/30 05:05:19;;;;;;;3.53;3.20;;;;;;;22.72;99.75;98364.41;5110151;27;20198;-74
2023/08/30 05:07:46;;;;;;;4.33;3.83;;;;;;;22.52;99.55;98322.72;5117131;27;20214;-75
2023/08/30 05:10:15;;;;;;;5.20;4.50;;;;;;;22.95;98.75;98363.03;5112482;27;20704;-74
2023/08/30 05:12:47;;;;;;;3.60;3.30;;;;;;;23.13;99.61;98368.25;5107887;28;20198;-74
2023/08/30 05:15:14;;;;;;;3.90;2.87;;;;;;;23.34;96.82;98366.97;5115916;27;20615;-74
2023/08/30 05:17:41;;;;;;;4.60;3.20;;;;;;;23.52;97.47;98366.97;5107533;28;20204;-75
2023/08/30 05:20:09;;;;;;;3.80;3.00;;;;;;;23.69;95.82;98368.72;5109311;28;20203;-77
2023/08/30 05:22:36;;;;;;;3.40;3.20;;;;;;;23.85;94.27;98368.00;5107110;28;20202;-76
2023/08/30 05:25:03;;;;;;;11.03;4.60;;;;;;;24.04;93.60;98373.84;5109652;28;20209;-77
2023/08/30 05:27:31;;;;;;;3.63;3.20;;;;;;;24.21;92.57;98373.94;5109219;28;20252;-78
2023/08/30 05:29:57;;;;;;;10.73;4.10;;;;;;;24.34;90.88;98379.56;5108361;28;20218;-75
2023/08/30 05:32:24;;;;;;;7.63;3.73;;;;;;;24.50;90.44;98369.16;5108277;28;20222;-76
2023/08/30 05:34:51;;;;;;;9.97;4.03;;;;;;;24.68;88.95;98362.00;5107819;28;20205;-75
2023/08/30 05:37:18;;;;;;;3.90;3.70;;;;;;;24.86;88.82;98375.84;5109133;28;20275;-75
2023/08/30 05:39:44;;;;;;;5.00;3.83;;;;;;;24.96;88.38;98376.50;5107727;28;20746;-75
2023/08/30 05:42:11;;;;;;;4.90;4.17;;;;;;;24.99;87.72;98375.38;5109057;28;20202;-76
2023/08/30 05:44:39;;;;;;;3.33;3.13;;;;;;;25.05;87.73;98375.53;5109713;28;20627;-77
2023/08/30 05:47:06;;;;;;;4.33;4.03;;;;;;;25.18;87.41;98379.47;5109737;28;20218;-75
2023/08/30 05:49:33;;;;;;;3.80;3.47;;;;;;;25.32;87.22;98376.22;5109331;28;20229;-75
2023/08/30 05:51:59;;;;;;;4.30;3.90;;;;;;;25.52;85.43;98382.81;5108112;28;20203;-76
2023/08/30 05:54:29;;;;;;;5.97;3.23;;;;;;;25.71;84.86;98387.72;5107275;28;20198;-76
2023/08/30 05:56:56;;;;;;;3.93;3.60;;;;;;;25.89;83.22;98390.94;5109815;28;20201;-77
2023/08/30 05:59:23;;;;;;;6.77;3.17;;;;;;;26.06;83.52;98403.06;5108318;28;20627;-77
2023/08/30 06:01:51;;;;;;;7.93;4.10;;;;;;;26.09;81.25;98412.41;5109236;28;20206;-77
2023/08/30 06:04:17;;;;;;;3.50;3.20;;;;;;;26.22;82.25;98404.03;5108109;28;20665;-77
2023/08/30 06:06:44;;;;;;;6.50;3.50;;;;;;;26.35;82.38;98402.50;5107551;28;20226;-76
2023/08/30 06:09:12;;;;;;;3.57;3.27;;;;;;;26.02;81.90;98401.75;5115047;28;20198;-77
2023/08/30 06:11:39;;;;;;;8.83;3.90;;;;;;;25.70;83.20;98401.81;5110488;28;20609;-76
2023/08/30 06:14:05;;;;;;;3.50;3.13;;;;;;;25.52;83.32;98398.56;5112766;28;20608;-76
2023/08/30 06:16:32;;;;;;;3.87;3.43;;;;;;;25.56;84.10;98405.09;5116632;27;20209;-76
2023/08/30 06:19:00;;;;;;;4.13;3.90;;;;;;;25.59;84.91;98404.75;5114809;27;20293;-76
2023/08/30 06:21:27;;;;;;;4.20;3.90;;;;;;;25.73;85.90;98411.16;5117440;27;20206;-76
2023/08/30 06:23:54;;;;;;;4.10;3.90;;;;;;;25.89;84.78;98411.97;5118525;27;20210;-76
2023/08/30 06:26:21;;;;;;;5.37;4.00;;;;;;;26.02;82.74;98407.00;5111430;27;20681;-76
2023/08/30 06:28:48;;;;;;;15.03;4.33;;;;;;;26.25;82.05;98408.94;5117096;27;20221;-76
2023/08/30 06:31:15;;;;;;;4.17;3.87;;;;;;;26.45;79.13;98412.81;5111218;27;20218;-75
2023/08/30 06:33:42;;;;;;;4.77;3.17;;;;;;;26.67;79.53;98413.88;5112107;27;20742;-76
2023/08/30 06:36:11;;;;;;;3.67;3.37;;;;;;;26.77;78.59;98417.94;5126777;27;20202;-76
2023/08/30 06:38:39;;;;;;;3.37;3.17;;;;;;;26.94;78.29;98418.69;5114337;27;20684;-77
2023/08/30 06:41:06;;;;;;;3.33;3.20;;;;;;;27.02;76.59;98422.09;5110204;27;20194;-76
2023/08/30 06:43:33;;;;;;;3.23;3.03;;;;;;;27.11;75.81;98433.38;5113999;27;20205;-76
2023/08/30 06:46:00;;;;;;;3.40;3.10;;;;;;;27.28;76.22;98426.19;5111555;27;20230;-76
2023/08/30 06:48:28;;;;;;;4.13;3.53;;;;;;;27.47;75.97;98425.75;5122137;27;20202;-76
2023/08/30 06:50:58;;;;;;;7.07;4.17;;;;;;;27.66;72.78;98425.25;5118125;27;20222;-76
2023/08/30 06:53:26;;;;;;;3.33;3.13;;;;;;;27.91;72.47;98428.50;5129169;27;20271;-77
2023/08/30 06:55:58;;;;;;;5.00;3.67;;;;;;;28.02;72.09;98436.78;5122561;27;20210;-76
2023/08/30 06:58:25;;;;;;;3.23;2.67;;;;;;;28.19;71.99;98431.38;5114443;27;20295;-76
2023/08/30 07:00:51;;;;;;;4.13;3.80;;;;;;;28.37;72.50;98434.47;5118119;27;20199;-77
2023/08/30 07:03:20;;;;;;;4.07;3.63;;;;;;;28.55;70.43;98437.56;5116988;27;20680;-75
2023/08/30 07:05:50;;;;;;;3.60;3.40;;;;;;;28.61;70.00;98431.53;5117668;27;20195;-76
2023/08/30 07:08:18;;;;;;;5.40;3.47;;;;;;;28.77;68.87;98439.28;5118577;27;20675;-76
2023/08/30 07:10:48;;;;;;;3.33;3.13;;;;;;;28.92;67.50;98434.78;5115057;27;20218;-76
2023/08/30 07:13:15;;;;;;;4.03;3.27;;;;;;;29.03;67.43;98434.31;5112946;27;20263;-76
2023/08/30 07:15:42;;;;;;;5.45;2.90;;;;;;;29.24;66.75;98437.97;5113941;27;20198;-76
2023/08/30 07:18:10;;;;;;;3.92;3.67;;;;;;;29.34;67.00;98436.66;5123411;27;20250;-76
2023/08/30 07:20:39;;;;;;;3.25;3.03;;;;;;;29.52;65.38;98428.31;5118975;27;20195;-76
2023/08/30 07:23:06;;;;;;;4.97;3.00;;;;;;;29.55;68.22;98435.84;5118095;27;20210;-76
2023/08/30 07:25:33;;;;;;;4.07;3.65;;;;;;;29.59;67.23;98437.13;5113256;27;20259;-75
2023/08/30 07:28:02;;;;;;;3.28;3.08;;;;;;;29.57;64.99;98439.13;5117468;27;20197;-76
2023/08/30 07:30:29;;;;;;;3.25;3.05;;;;;;;29.70;64.70;98439.22;5112341;27;20717;-77
2023/08/30 07:32:59;;;;;;;3.45;3.25;;;;;;;29.79;66.89;98437.28;5113927;27;20198;-76
2023/08/30 07:35:26;;;;;;;3.40;3.13;;;;;;;29.80;65.85;98434.44;5111852;27;20199;-77
2023/08/30 07:37:53;;;;;;;3.50;3.22;;;;;;;29.70;63.19;98434.78;5111568;27;20311;-76
2023/08/30 07:40:20;;;;;;;3.70;3.40;;;;;;;29.60;62.95;98428.16;5111008;28;20211;-76
2023/08/30 07:42:47;;;;;;;3.92;3.63;;;;;;;29.74;63.45;98442.31;5112045;27;20202;-77
2023/08/30 07:45:15;;;;;;;7.63;4.40;;;;;;;29.85;64.07;98439.19;5118125;27;20190;-76
2023/08/30 07:47:42;;;;;;;3.70;3.50;;;;;;;30.01;63.71;98436.25;5116194;27;20195;-77
2023/08/30 07:50:09;;;;;;;3.72;3.45;;;;;;;30.09;64.20;98433.44;5116951;27;20222;-76
2023/08/30 07:52:37;;;;;;;4.85;3.42;;;;;;;30.06;65.48;98433.84;5113541;27;20203;-76
2023/08/30 07:55:05;;;;;;;3.90;3.60;;;;;;;29.99;63.89;98438.25;5120035;27;20266;-76
2023/08/30 07:57:32;;;;;;;3.67;3.42;;;;;;;30.03;64.54;98432.41;5109758;27;20568;-76
2023/08/30 07:59:59;;;;;;;3.33;3.03;;;;;;;30.18;63.61;98433.09;5114481;27;20237;-76
2023/08/30 08:02:28;;;;;;;6.28;3.45;;;;;;;30.36;61.56;98435.25;5126192;27;20190;-77
2023/08/30 08:04:55;;;;;;;4.80;2.95;;;;;;;30.10;61.89;98435.91;5113195;27;20222;-77
2023/08/30 08:07:22;;;;;;;3.65;3.45;;;;;;;30.25;62.27;98433.16;5111170;28;20226;-76
2023/08/30 08:09:49;;;;;;;5.72;3.75;;;;;;;30.46;61.36;98438.41;5115533;27;20673;-75
2023/08/30 08:12:16;;;;;;;3.85;3.65;;;;;;;30.43;60.28;98432.69;5123458;27;20218;-76
2023/08/30 08:14:44;;;;;;;3.03;2.90;;;;;;;30.60;60.98;98434.78;5119747;27;20200;-76
2023/08/30 08:17:10;;;;;;;3.40;2.97;;;;;;;30.82;60.06;98432.84;5116549;27;20931;-76
2023/08/30 08:19:39;;;;;;;6.03;3.90;;;;;;;30.98;60.25;98424.59;5117387;27;20199;-75
2023/08/30 08:22:07;;;;;;;10.98;3.80;;;;;;;31.20;56.79;98423.41;5114017;27;20206;-76
2023/08/30 08:24:34;;;;;;;3.38;3.08;;;;;;;31.31;56.17;98418.53;5116123;27;20198;-76
2023/08/30 08:27:01;;;;;;;4.22;4.03;;;;;;;31.32;61.87;98422.81;5121589;27;20255;-76
2023/08/30 08:29:28;;;;;;;4.03;3.70;;;;;;;31.31;58.08;98421.19;5115591;27;20203;-76
2023/08/30 08:31:55;;;;;;;3.03;2.83;;;;;;;31.48;58.30;98427.72;5110530;27;20309;-76
2023/08/30 08:34:22;;;;;;;3.60;3.40;;;;;;;31.35;56.17;98387.97;5116398;27;20664;-76
2023/08/30 08:36:50;;;;;;;4.18;3.28;;;;;;;31.72;54.84;98429.81;5113358;27;20665;-76
2023/08/30 08:39:18;;;;;;;3.15;2.72;;;;;;;31.92;53.42;98427.97;5120150;27;20208;-76
2023/08/30 08:41:46;;;;;;;2.90;2.70;;;;;;;32.13;53.64;98425.09;5125850;27;20279;-76
2023/08/30 08:44:14;;;;;;;3.65;3.45;;;;;;;32.41;54.18;98422.16;5114849;27;20195;-75
2023/08/30 08:46:42;;;;;;;3.88;3.03;;;;;;;32.63;50.28;98414.78;5128013;27;20585;-77
2023/08/30 08:49:13;;;;;;;2.90;2.70;;;;;;;32.78;50.07;98417.97;5117128;27;20199;-76
2023/08/30 08:51:43;;;;;;;3.22;3.03;;;;;;;32.93;49.15;98405.22;5118076;27;20337;-76
2023/08/30 08:54:12;;;;;;;2.92;2.83;;;;;;;33.06;49.49;98397.19;5121876;27;20577;-76
2023/08/30 08:56:40;;;;;;;2.80;2.58;;;;;;;33.22;48.38;98399.34;5128677;27;20218;-77
2023/08/30 08:59:08;;;;;;;3.28;3.08;;;;;;;33.25;49.60;98398.91;5115964;27;20199;-77
2023/08/30 09:01:39;;;;;;;2.97;2.80;;;;;;;33.05;47.78;98397.41;5115270;27;20206;-76
2023/08/30 09:04:08;;;;;;;3.13;2.92;;;;;;;33.14;49.72;98407.59;5114784;27;20229;-76
2023/08/30 09:06:35;;;;;;;2.92;2.80;;;;;;;33.21;48.51;98400.41;5121396;27;20225;-76
2023/08/30 09:09:03;;;;;;;3.20;2.92;;;;;;;33.42;49.40;98398.38;5120779;27;20280;-76
2023/08/30 09:11:36;;;;;;;4.10;3.17;;;;;;;33.62;48.75;98394.59;5120589;27;20299;-76
2023/08/30 09:14:03;;;;;;;3.75;3.45;;;;;;;33.64;46.77;98399.66;5117013;27;20203;-76
2023/08/30 09:16:30;;;;;;;3.55;3.25;;;;;;;33.61;47.21;98394.78;5112370;27;20745;-76
2023/08/30 09:19:00;;;;;;;2.75;2.50;;;;;;;33.66;46.59;98390.47;5114940;27;20190;-76
2023/08/30 09:21:31;;;;;;;3.00;2.83;;;;;;;33.82;45.99;98389.09;5126075;27;20255;-76
2023/08/30 09:23:59;;;;;;;3.45;2.90;;;;;;;33.93;47.16;98385.69;5109990;28;20708;-76
2023/08/30 09:26:28;;;;;;;3.30;3.08;;;;;;;33.74;47.11;98389.34;5118042;27;20234;-76
2023/08/30 09:28:56;;;;;;;3.03;2.92;;;;;;;33.88;48.09;98384.72;5116509;27;20202;-76
2023/08/30 09:31:23;;;;;;;5.72;3.30;;;;;;;33.96;45.94;98385.25;5113575;27;20230;-76
2023/08/30 09:33:50;;;;;;;3.33;3.05;;;;;;;34.12;45.28;98378.59;5107013;27;20326;-82
2023/08/30 09:36:17;;;;;;;2.70;2.60;;;;;;;34.22;45.23;98374.38;5109459;27;20618;-77
2023/08/30 09:38:49;;;;;;;2.25;2.15;;;;;;;34.20;46.18;98370.31;5113135;27;20669;-76
2023/08/30 09:41:17;;;;;;;3.28;3.08;;;;;;;34.12;47.54;98359.97;5108889;27;20222;-76
2023/08/30 09:43:44;;;;;;;3.65;3.35;;;;;;;33.94;48.11;98360.75;5107998;28;20191;-77
2023/08/30 09:46:13;;;;;;;2.72;2.53;;;;;;;34.02;46.44;98352.47;5108186;28;20285;-77
2023/08/30 09:48:40;;;;;;;3.30;3.10;;;;;;;34.16;45.99;98353.97;5113138;28;20191;-77
2023/08/30 09:51:09;;;;;;;4.30;3.53;;;;;;;34.06;46.41;98352.81;5113606;27;20701;-79
2023/08/30 09:53:44;;;;;;;3.45;3.25;;;;;;;33.83;44.72;98350.81;5108173;27;20199;-77
2023/08/30 09:56:13;;;;;;;3.25;3.05;;;;;;;33.90;46.08;98351.56;5111964;27;20285;-77
2023/08/30 09:58:41;;;;;;;3.17;2.97;;;;;;;33.99;45.81;98350.25;5111960;27;20205;-76
2023/08/30 10:01:09;;;;;;;3.72;3.42;;;;;;;33.65;44.99;98354.28;5119854;27;20672;-78
2023/08/30 10:03:37;;;;;;;5.93;3.22;;;;;;;33.50;46.22;98353.78;5114481;27;20198;-76
2023/08/30 10:06:05;;;;;;;2.92;2.72;;;;;;;33.61;45.11;98349.59;5121851;27;20189;-76
2023/08/30 10:08:33;;;;;;;3.30;3.10;;;;;;;33.57;45.82;98354.50;5111102;27;20725;-76
2023/08/30 10:11:00;;;;;;;2.90;2.70;;;;;;;33.68;47.05;98351.19;5115030;27;20271;-76
2023/08/30 10:13:27;;;;;;;3.58;3.38;;;;;;;33.49;45.61;98341.50;5111068;27;20207;-77
2023/08/30 10:16:01;;;;;;;2.80;2.67;;;;;;;33.56;46.18;98336.13;5112716;27;20217;-76
2023/08/30 10:18:30;;;;;;;3.45;3.15;;;;;;;33.70;47.75;98332.38;5114178;27;20199;-76
2023/08/30 10:21:01;;;;;;;3.97;3.17;;;;;;;33.71;46.70;98331.31;5117903;27;20695;-76
2023/08/30 10:23:30;;;;;;;2.85;2.65;;;;;;;33.63;48.28;98331.63;5121883;27;20256;-77
2023/08/30 10:25:57;;;;;;;3.30;3.10;;;;;;;33.30;46.08;98331.06;5116546;27;20585;-76
2023/08/30 10:28:25;;;;;;;3.03;2.83;;;;;;;33.43;46.66;98322.97;5117890;27;20202;-76
2023/08/30 10:30:53;;;;;;;3.15;2.85;;;;;;;33.58;45.63;98329.56;5118357;27;20259;-76
2023/08/30 10:33:25;;;;;;;3.42;3.33;;;;;;;33.47;47.31;98337.44;5113420;27;20206;-76
2023/08/30 10:35:52;;;;;;;3.38;3.10;;;;;;;33.47;46.96;98329.47;5117923;27;20208;-77
2023/08/30 10:38:30;;;;;;;3.35;2.95;;;;;;;33.34;46.28;98324.28;5114466;27;20213;-76
2023/08/30 10:41:06;;;;;;;6.60;3.60;;;;;;;33.38;47.26;98314.84;5118516;27;20676;-76
2023/08/30 10:43:36;;;;;;;3.53;3.33;;;;;;;33.54;45.90;98322.28;5109593;28;20202;-77
2023/08/30 10:46:05;;;;;;;3.65;3.33;;;;;;;33.70;45.71;98313.75;5112173;28;20198;-78
2023/08/30 10:48:39;;;;;;;3.03;2.92;;;;;;;33.61;45.94;98307.06;5112158;28;20202;-78
2023/08/30 10:51:21;;;;;;;6.20;3.25;;;;;;;33.58;45.46;98307.47;5110573;28;21284;-77
2023/08/30 10:53:59;;;;;;;2.83;2.72;;;;;;;33.59;47.07;98309.94;5113477;28;20194;-78
2023/08/30 10:56:30;;;;;;;5.57;3.35;;;;;;;33.45;45.67;98313.75;5114307;28;20213;-76
2023/08/30 10:58:57;;;;;;;3.38;2.92;;;;;;;33.12;46.16;98303.38;5113003;28;20694;-77
2023/08/30 11:01:25;;;;;;;3.00;2.72;;;;;;;33.28;44.88;98309.22;5113471;27;20203;-76
2023/08/30 11:03:53;;;;;;;2.70;2.60;;;;;;;33.37;46.15;98294.63;5113164;28;20199;-78
2023/08/30 11:06:21;;;;;;;2.83;2.72;;;;;;;33.40;45.11;98302.16;5112916;28;20190;-78
2023/08/30 11:08:49;;;;;;;4.07;2.88;;;;;;;33.26;43.26;98299.59;5127511;27;20214;-78
2023/08/30 11:11:17;;;;;;;2.65;2.47;;;;;;;33.40;46.10;98307.47;5123788;27;20263;-76
2023/08/30 11:13:45;;;;;;;3.60;3.40;;;;;;;33.53;44.59;98310.00;5132243;27;20695;-79
2023/08/30 11:16:12;;;;;;;3.63;3.33;;;;;;;33.65;46.40;98302.94;5114982;27;20198;-77
2023/08/30 11:18:41;;;;;;;4.03;3.42;;;;;;;33.63;45.55;98295.22;5120210;27;20205;-77
2023/08/30 11:21:09;;;;;;;3.67;3.38;;;;;;;33.73;46.28;98290.19;5113928;28;20270;-76
2023/08/30 11:23:36;;;;;;;3.50;3.30;;;;;;;33.98;46.39;98284.81;5113530;28;20195;-77
2023/08/30 11:26:04;;;;;;;3.15;2.85;;;;;;;33.76;43.50;98291.59;5113208;28;20650;-76
2023/08/30 11:28:33;;;;;;;3.20;2.97;;;;;;;33.63;44.88;98286.41;5112703;28;20203;-77
2023/08/30 11:30:59;;;;;;;3.55;3.35;;;;;;;33.49;44.64;98277.72;5112702;28;20211;-76
2023/08/30 11:33:26;;;;;;;5.28;3.28;;;;;;;33.67;45.31;98279.59;5113237;28;20693;-77
2023/08/30 11:35:53;;;;;;;3.33;3.22;;;;;;;33.91;48.33;98281.41;5112705;28;20569;-78